Airfield :
LOGIN :

Register | Disclaimer

   EN    FR    IT 

 










Legend :    VFR   Marginal VFR   IFR   Intensive IFR   Very Intensive IFR
Visi :
Ceiling :
>= 8 km
>= 3000ft
5 to 8 km
1000 to 3000 ft
1500m to 5 km
500 to 1000 ft
800 to 1500m
200 to 500 ft
< 800m
< 200 ft
Symbols :   Thunderstorms  Fog  Heavy snow  Heavy precipitations  Wind > 20 kt
SIGMETs :     Misc.  Thunderstorms  Icing  Turbulence  Mountain Waves  Volcanic Ashes







- Airport Elevation : 587 ft
- IATA code : XCR
- Download approach charts


LFOK - Chalons Vatry

CURRENT METAR :
  • 241200Z AUTO 19017KT 9999 FEW042 BKN110 16/13 Q1000 TEMPO 22020G35KT 2000 TSRA BKN030CB

EXPIRED METARs :
  • 241130Z AUTO 21018KT 7000 -RA FEW029/// SCT042/// BKN054/// ///CB 13/12 Q1000 TEMPO 22020G35KT 2000 TSRA
  • 241100Z AUTO 22016KT 9999 ///CB 17/10 Q0999 TEMPO 22020G35KT 2000 TSRA
  • 241030Z AUTO 21018KT CAVOK 18/10 Q0999 TEMPO 22020G35KT 2000 TSRA BKN030CB
  • 241000Z AUTO 20022KT CAVOK 19/09 Q0998 TEMPO 22020G35KT 2000 TSRA BKN030CB
  • 240930Z AUTO 18020KT CAVOK 20/09 Q0999 TEMPO 22020G35KT 2000 TSRA BKN030CB

TAF TAF LFOK
Valid from the 24 at 12:00 until the 25 at 12:00 UTC


241100Z 2412/2512 20017KT CAVOK
TEMPO 2412/2418 22020G30KT 4000 SHRA BKN030CB
PROB40
TEMPO 2412/2418 22020G40KT 2000 TSRA BKN030CB
BECMG 2418/2421 13010KT
TEMPO 2504/2509 16015G25KT 4000 RA BKN012 BKN040TCU
TEMPO 2509/2512 19015G25KT 4000 SHRA BKN020TCU
No reported NOTAMs for that airfield.
1 SIGMET reported for the Paris FIR (LFFF) :
 
Severe turbulence
LFFF SIGMET 4 VALID 241100/241500 LFPW
LFFF PARIS FIR/UIR SEV TURB FCST WI N4900 E00445 - N4830 E00530 - N4730 E00415 - N4630 E00445 - N4630 E00330 - N4900 E00415 - N4900 E00445 SFC/FL100 STNR INTSF=



MET'MAP, your aeronautical weather chart ! - Copyright ORBIFLY December 2007 - Disclaimer

ORBIFLY MET'MAP TEAM :

Programming & Development : Alexandra Zaïnal
Concept & Development : Baudouin d'Aumeries
Co-Development & Prog : Marc-Olivier Méhu
Technical & hardware support : Manuel Goepfert

Contact : metmap@orbifly.com




SOURCES & CREDITS :

   NOAA